Time;durP1;ratioP1;P1;durP2;ratioP2;P2;SDS_P1;SDS_P2;PMS_P1;PMS_P2;Temp;Humidity;BMP_temperature;BMP_pressure;BME280_temperature;BME280_humidity;BME280_pressure;Samples;Min_cycle;Max_cycle;Signal;HPM_P1;HPM_P2
2022/05/24 00:00:53;;;;;;;2.55;1.48;;;;;;;27.99;35.38;102030.69;4186046;28;20079;-64
2022/05/24 00:02:58;;;;;;;1.60;1.38;;;;;;;27.98;35.60;102031.84;4182573;28;20040;-64
2022/05/24 00:04:59;;;;;;;1.88;1.33;;;;;;;28.00;35.78;102029.59;4190004;28;20044;-65
2022/05/24 00:07:01;;;;;;;1.60;1.50;;;;;;;28.00;35.81;102036.06;4182753;28;20029;-66
2022/05/24 00:09:03;;;;;;;1.50;1.23;;;;;;;28.00;36.02;102023.97;4166124;28;20127;-66
2022/05/24 00:11:07;;;;;;;2.47;1.42;;;;;;;28.00;35.96;102033.25;4165882;28;20038;-64
2022/05/24 00:13:10;;;;;;;1.65;1.45;;;;;;;28.00;35.63;102027.59;4148371;28;20080;-64
2022/05/24 00:15:22;;;;;;;1.70;1.60;;;;;;;27.93;36.01;102009.41;4165458;28;20037;-67
2022/05/24 00:17:24;;;;;;;2.47;1.40;;;;;;;28.00;36.03;102024.78;4165289;28;20463;-66
2022/05/24 00:19:25;;;;;;;1.48;1.23;;;;;;;28.01;35.82;102028.44;4165462;28;20045;-67
2022/05/24 00:21:27;;;;;;;1.60;1.50;;;;;;;28.02;36.33;102021.66;4178532;28;20045;-67
2022/05/24 00:23:31;;;;;;;2.55;1.40;;;;;;;28.01;36.23;102022.81;4176514;28;20036;-66
2022/05/24 00:25:36;;;;;;;1.50;1.40;;;;;;;28.02;35.92;102030.09;4181844;28;20045;-66
2022/05/24 00:27:38;;;;;;;1.83;1.50;;;;;;;28.01;35.74;102022.81;4182333;28;20094;-66
2022/05/24 00:29:39;;;;;;;3.50;1.50;;;;;;;28.00;36.21;102032.41;4172008;28;20492;-66
2022/05/24 00:31:40;;;;;;;1.98;1.45;;;;;;;28.01;35.84;102025.63;4151278;28;20100;-67
2022/05/24 00:33:44;;;;;;;1.77;1.67;;;;;;;28.00;35.76;102035.22;4174414;28;20099;-68
2022/05/24 00:35:46;;;;;;;2.13;1.60;;;;;;;28.01;36.16;102036.88;4177970;28;20374;-68
2022/05/24 00:37:49;;;;;;;2.13;1.25;;;;;;;28.00;35.81;102041.69;4166799;28;20689;-68
2022/05/24 00:39:50;;;;;;;1.95;1.30;;;;;;;28.01;35.94;102039.69;4179567;28;20045;-68
2022/05/24 00:42:03;;;;;;;2.05;1.40;;;;;;;28.00;36.18;102047.31;4172106;28;20059;-68
2022/05/24 00:44:14;;;;;;;2.47;1.40;;;;;;;28.01;36.39;102048.13;4168027;28;20091;-68
2022/05/24 00:46:22;;;;;;;2.50;1.65;;;;;;;27.86;36.37;102019.09;4168663;28;20070;-68
2022/05/24 00:48:37;;;;;;;2.22;1.73;;;;;;;28.01;36.18;102036.88;4172170;28;20083;-69
2022/05/24 00:50:48;;;;;;;1.95;1.60;;;;;;;28.01;36.10;102036.88;4169171;28;20037;-67
2022/05/24 00:53:07;;;;;;;2.45;1.58;;;;;;;27.93;36.21;102018.69;4166344;28;20037;-69
2022/05/24 00:55:11;;;;;;;1.77;1.67;;;;;;;28.03;36.16;102028.97;4179218;28;20040;-68
2022/05/24 00:57:38;;;;;;;1.65;1.55;;;;;;;27.99;36.31;102028.72;4181573;28;20041;-68
2022/05/24 00:59:49;;;;;;;2.50;1.75;;;;;;;28.02;36.06;102038.56;4162505;28;20087;-68
2022/05/24 01:01:51;;;;;;;2.25;1.42;;;;;;;28.02;36.13;102038.56;4184614;28;20074;-68
2022/05/24 01:03:52;;;;;;;2.15;1.48;;;;;;;27.99;36.17;102041.97;4198905;28;20036;-68
2022/05/24 01:05:53;;;;;;;3.05;1.95;;;;;;;27.96;36.30;102025.72;4188419;28;20044;-69
2022/05/24 01:07:55;;;;;;;1.85;1.60;;;;;;;28.02;36.37;102035.72;4181311;28;20091;-68
2022/05/24 01:10:06;;;;;;;2.42;1.40;;;;;;;28.01;36.26;102039.69;4181563;28;20037;-67
2022/05/24 01:12:15;;;;;;;2.45;1.90;;;;;;;27.96;36.46;102048.22;4173090;28;20135;-68
2022/05/24 01:14:20;;;;;;;2.17;1.33;;;;;;;28.01;35.84;102063.03;4165737;28;20021;-68
2022/05/24 01:16:27;;;;;;;2.53;1.77;;;;;;;28.01;36.16;102065.03;4174781;28;20103;-68
2022/05/24 01:18:29;;;;;;;2.75;1.65;;;;;;;28.01;35.88;102079.09;4181277;28;20443;-69
2022/05/24 01:20:30;;;;;;;3.63;1.42;;;;;;;28.00;35.99;102088.66;4181035;28;20099;-67
2022/05/24 01:23:38;;;;;;;2.75;1.50;;;;;;;27.97;35.79;102080.81;4181985;28;20028;-68
2022/05/24 01:25:54;;;;;;;;;;;;;;;27.99;35.99;102098.22;4099128;28;20098;-67
2022/05/24 01:27:56;;;;;;;2.35;1.95;;;;;;;28.05;36.04;102117.56;4098465;29;19918;-67
2022/05/24 01:29:57;;;;;;;4.15;1.67;;;;;;;27.98;36.18;102116.25;4103932;28;20047;-68
2022/05/24 01:36:43;;;;;;;1.67;1.50;;;;;;;27.98;36.70;102138.75;4150773;28;20469;-68
2022/05/24 01:38:50;;;;;;;2.20;1.65;;;;;;;27.94;36.95;102129.25;4165283;28;20041;-68
2022/05/24 01:40:54;;;;;;;2.45;1.50;;;;;;;28.01;37.03;102144.63;4168407;28;20447;-69
2022/05/24 01:42:58;;;;;;;1.63;1.42;;;;;;;28.01;37.17;102140.97;4153567;28;20107;-68
2022/05/24 01:45:31;;;;;;;3.22;1.60;;;;;;;27.99;37.23;102152.53;4181153;28;20045;-68
2022/05/24 01:47:35;;;;;;;1.80;1.65;;;;;;;28.01;37.27;102155.88;4170875;28;20087;-68
2022/05/24 01:49:40;;;;;;;2.03;1.75;;;;;;;28.01;37.14;102160.69;4164516;28;20493;-68
2022/05/24 01:51:55;;;;;;;2.67;1.52;;;;;;;27.98;37.20;102158.47;4165691;28;20041;-68
2022/05/24 01:54:01;;;;;;;2.30;1.70;;;;;;;28.01;37.41;102163.50;4180939;28;20044;-68
2022/05/24 01:56:10;;;;;;;2.08;1.73;;;;;;;28.00;37.50;102164.63;4180774;28;20037;-67
2022/05/24 01:58:15;;;;;;;1.50;1.40;;;;;;;27.96;37.46;102157.94;4180610;28;20033;-68
2022/05/24 02:00:17;;;;;;;3.08;1.77;;;;;;;27.99;37.45;102168.56;4163640;28;20037;-68
2022/05/24 02:02:19;;;;;;;2.25;1.88;;;;;;;28.00;37.71;102173.09;4180237;28;20044;-69
2022/05/24 02:04:23;;;;;;;2.78;1.90;;;;;;;28.00;37.79;102173.09;4180343;28;20549;-68
2022/05/24 02:06:26;;;;;;;3.93;1.97;;;;;;;27.94;37.86;102171.44;4180466;28;20071;-68
2022/05/24 02:08:28;;;;;;;3.57;2.57;;;;;;;28.00;37.87;102175.91;4180863;28;20338;-68
2022/05/24 02:10:43;;;;;;;2.03;1.70;;;;;;;27.99;37.86;102182.63;4182304;28;20469;-68
2022/05/24 02:12:55;;;;;;;2.40;1.90;;;;;;;27.99;37.58;102191.06;4180974;28;20037;-69
2022/05/24 02:14:59;;;;;;;1.73;1.42;;;;;;;28.00;37.79;102187.16;4181494;28;20090;-68
2022/05/24 02:17:13;;;;;;;2.85;1.92;;;;;;;28.01;37.97;102194.44;4180690;28;20488;-68
2022/05/24 02:19:21;;;;;;;2.22;1.48;;;;;;;27.98;37.84;102183.78;4180739;28;20032;-69
2022/05/24 02:21:25;;;;;;;3.15;1.75;;;;;;;28.01;37.61;102194.44;4180880;28;20053;-68
2022/05/24 02:23:27;;;;;;;3.92;1.60;;;;;;;28.02;37.95;102204.56;4180939;28;20049;-68
2022/05/24 02:25:49;;;;;;;3.72;1.80;;;;;;;28.02;37.77;102202.56;4180737;28;20029;-69
2022/05/24 02:27:51;;;;;;;2.17;1.52;;;;;;;28.03;37.87;102197.78;4180206;28;20049;-69
2022/05/24 02:29:55;;;;;;;2.60;1.65;;;;;;;28.03;38.09;102198.63;4158898;28;20045;-69
2022/05/24 02:31:57;;;;;;;2.70;1.65;;;;;;;28.03;37.76;102203.41;4164229;28;20092;-69
2022/05/24 02:33:58;;;;;;;2.78;1.52;;;;;;;28.04;38.11;102202.25;4146904;28;20046;-68
2022/05/24 02:36:01;;;;;;;2.03;1.83;;;;;;;28.04;38.32;102191.88;4164075;28;20099;-68
2022/05/24 02:38:05;;;;;;;3.47;1.95;;;;;;;28.04;38.09;102199.44;4163867;28;20110;-68
2022/05/24 02:42:29;;;;;;;1.90;1.60;;;;;;;28.07;38.21;102198.88;4165859;28;20424;-69
2022/05/24 02:44:38;;;;;;;2.20;1.90;;;;;;;28.07;38.34;102205.31;4165241;28;20091;-67
2022/05/24 02:46:44;;;;;;;2.42;1.80;;;;;;;28.07;38.29;102193.22;4141469;28;20548;-68
2022/05/24 02:48:47;;;;;;;1.92;1.55;;;;;;;28.06;38.25;102195.22;4151733;28;20038;-68
2022/05/24 02:50:49;;;;;;;1.70;1.50;;;;;;;28.06;38.42;102197.19;4163603;28;20041;-68
2022/05/24 02:52:50;;;;;;;3.80;1.70;;;;;;;28.06;38.22;102198.03;4164202;28;20092;-69
2022/05/24 02:54:51;;;;;;;2.05;1.60;;;;;;;28.06;38.49;102185.94;4163770;28;20045;-69
2022/05/24 02:56:55;;;;;;;2.45;1.50;;;;;;;28.06;38.20;102188.75;4163952;28;20447;-69
2022/05/24 02:58:57;;;;;;;2.13;1.90;;;;;;;28.06;38.49;102188.75;4164044;28;20068;-69
2022/05/24 03:00:58;;;;;;;2.15;1.80;;;;;;;28.06;38.31;102186.78;4146851;28;20287;-69
2022/05/24 03:03:00;;;;;;;1.80;1.63;;;;;;;27.95;38.30;102185.22;4146845;28;20116;-69
2022/05/24 03:05:03;;;;;;;2.75;1.70;;;;;;;27.99;38.53;102179.81;4163455;28;20091;-69
2022/05/24 03:09:36;;;;;;;1.77;1.63;;;;;;;28.07;38.24;102196.03;4165067;28;20091;-69
2022/05/24 03:14:16;;;;;;;1.90;1.63;;;;;;;28.09;38.41;102190.97;4181838;28;20087;-67
2022/05/24 03:16:17;;;;;;;2.00;1.55;;;;;;;28.07;38.39;102193.22;4185219;28;20087;-68
2022/05/24 03:18:21;;;;;;;2.28;1.58;;;;;;;28.07;38.64;102196.03;4193390;28;20037;-68
2022/05/24 03:20:22;;;;;;;2.15;1.73;;;;;;;28.07;38.72;102199.69;4167331;28;20095;-66
2022/05/24 03:22:24;;;;;;;2.17;1.50;;;;;;;28.07;38.51;102193.22;4168019;28;20064;-68
2022/05/24 03:24:26;;;;;;;2.05;1.45;;;;;;;28.07;38.67;102193.22;4176168;28;20049;-68
2022/05/24 03:26:27;;;;;;;1.63;1.50;;;;;;;28.07;38.63;102190.41;4177284;28;20559;-67
2022/05/24 03:28:29;;;;;;;2.13;1.70;;;;;;;28.07;38.73;102190.41;4189112;28;20135;-68
2022/05/24 03:30:37;;;;;;;2.90;1.73;;;;;;;28.08;38.55;102194.91;4193694;28;20044;-68
2022/05/24 03:32:41;;;;;;;1.83;1.45;;;;;;;27.99;38.38;102174.19;4194740;28;20037;-68
2022/05/24 03:34:43;;;;;;;1.77;1.58;;;;;;;28.08;38.68;102192.09;4184170;28;20045;-68
2022/05/24 03:36:44;;;;;;;2.15;1.35;;;;;;;28.07;38.80;102191.25;4169503;28;20041;-68
2022/05/24 03:38:46;;;;;;;2.25;1.80;;;;;;;28.07;38.45;102194.06;4168117;28;20046;-68
2022/05/24 03:40:50;;;;;;;1.85;1.38;;;;;;;28.07;38.89;102193.22;4167058;28;20042;-68
2022/05/24 03:42:55;;;;;;;1.50;1.40;;;;;;;27.95;38.53;102176.78;4167801;28;20092;-68
2022/05/24 03:44:56;;;;;;;2.40;1.85;;;;;;;27.99;38.91;102183.47;4167945;28;20497;-68
2022/05/24 03:46:58;;;;;;;2.67;1.65;;;;;;;28.08;38.59;102200.53;4167567;28;20421;-68
2022/05/24 03:48:59;;;;;;;1.48;1.38;;;;;;;28.09;38.85;102196.59;4168438;28;20177;-69
2022/05/24 03:51:04;;;;;;;3.10;1.50;;;;;;;28.08;38.91;102195.75;4168273;28;20045;-68
2022/05/24 03:53:05;;;;;;;1.73;1.60;;;;;;;28.08;38.82;102211.78;4168795;28;20041;-69
2022/05/24 03:55:09;;;;;;;1.48;1.38;;;;;;;28.00;38.73;102187.16;4168233;28;20037;-67
2022/05/24 03:59:34;;;;;;;1.67;1.50;;;;;;;28.05;38.97;102196.34;4169917;28;20091;-68
2022/05/24 04:01:36;;;;;;;2.42;1.55;;;;;;;28.07;38.78;102198.88;4180466;28;20086;-68
2022/05/24 04:03:40;;;;;;;1.55;1.42;;;;;;;28.08;39.06;102206.16;4182624;28;20033;-69
2022/05/24 04:05:42;;;;;;;1.70;1.40;;;;;;;28.09;39.09;102202.22;4184182;28;20067;-68
2022/05/24 04:07:44;;;;;;;1.52;1.40;;;;;;;28.09;38.84;102207.84;4183332;28;20090;-68
2022/05/24 04:09:45;;;;;;;2.80;1.38;;;;;;;28.09;38.95;102210.69;4183180;28;20550;-68
2022/05/24 04:11:49;;;;;;;1.70;1.25;;;;;;;28.09;39.29;102207.84;4183786;28;20484;-69
2022/05/24 04:13:50;;;;;;;1.40;1.30;;;;;;;28.08;39.14;102212.63;4166639;28;20385;-69
2022/05/24 04:15:52;;;;;;;1.73;1.50;;;;;;;28.10;38.98;102201.09;4184164;28;20037;-67
2022/05/24 04:17:57;;;;;;;1.98;1.42;;;;;;;28.09;39.12;102213.50;4183217;28;20040;-68
2022/05/24 04:19:58;;;;;;;2.00;1.63;;;;;;;27.96;39.32;102186.06;4184235;28;20087;-68
2022/05/24 04:21:59;;;;;;;1.73;1.25;;;;;;;28.08;39.20;102217.41;4183697;28;20119;-68
2022/05/24 04:24:01;;;;;;;2.47;1.48;;;;;;;28.09;39.30;102211.50;4183400;28;20095;-68
2022/05/24 04:26:05;;;;;;;2.05;1.70;;;;;;;28.10;39.08;102212.34;4182374;28;20045;-68
2022/05/24 04:28:06;;;;;;;2.00;1.80;;;;;;;28.08;38.91;102211.78;4177943;28;20373;-68
2022/05/24 04:30:12;;;;;;;2.60;1.50;;;;;;;28.00;39.36;102192.78;4166909;28;20489;-68
2022/05/24 04:32:13;;;;;;;2.60;1.48;;;;;;;28.07;39.40;102210.13;4166326;28;20104;-68
2022/05/24 04:34:14;;;;;;;2.45;1.60;;;;;;;28.07;39.35;102207.31;4167236;28;20104;-67
2022/05/24 04:36:16;;;;;;;3.90;1.52;;;;;;;28.08;39.17;102206.16;4170154;28;20041;-69
2022/05/24 04:38:18;;;;;;;2.85;1.45;;;;;;;28.08;39.18;102208.97;4176462;28;20381;-68
2022/05/24 04:42:18;;;;;;;1.90;1.55;;;;;;;28.07;39.31;102198.88;4182668;28;20045;-68
2022/05/24 04:42:41;;;;;;;2.40;1.58;;;;;;;28.08;39.24;102200.53;4169504;28;20037;-69
2022/05/24 04:44:42;;;;;;;2.10;1.40;;;;;;;28.07;39.20;102194.06;4180076;28;20099;-68
2022/05/24 04:49:06;;;;;;;1.80;1.40;;;;;;;28.07;39.31;102193.22;4169056;28;20093;-68
2022/05/24 04:51:07;;;;;;;1.65;1.52;;;;;;;28.06;39.39;102191.56;4169176;28;20041;-69
2022/05/24 04:53:09;;;;;;;2.55;1.90;;;;;;;28.06;39.22;102192.41;4165746;28;20042;-67
2022/05/24 04:55:13;;;;;;;1.70;1.30;;;;;;;28.05;39.41;102190.72;4165249;28;20096;-66
2022/05/24 04:57:17;;;;;;;1.27;1.17;;;;;;;28.05;39.39;102184.28;4164899;28;20041;-68
2022/05/24 04:59:21;;;;;;;1.73;1.60;;;;;;;28.06;39.21;102191.56;4165222;28;20164;-68
2022/05/24 05:01:25;;;;;;;1.52;1.38;;;;;;;28.05;39.53;102185.09;4165903;28;20474;-66
2022/05/24 05:03:27;;;;;;;1.98;1.65;;;;;;;28.05;39.50;102187.09;4169056;28;20025;-66
2022/05/24 05:05:31;;;;;;;2.28;1.48;;;;;;;28.04;39.33;102177.81;4169009;28;20045;-66
2022/05/24 05:07:33;;;;;;;3.20;1.73;;;;;;;28.02;39.42;102179.22;4172493;28;20037;-66
2022/05/24 05:09:34;;;;;;;2.22;1.55;;;;;;;27.98;39.59;102161.28;4184750;28;20534;-66
2022/05/24 05:11:36;;;;;;;1.65;1.55;;;;;;;28.05;39.56;102168.22;4172748;28;20508;-68
2022/05/24 05:13:37;;;;;;;2.33;1.58;;;;;;;28.04;39.55;102171.31;4169163;28;20072;-66
2022/05/24 05:15:39;;;;;;;1.90;1.60;;;;;;;28.03;39.41;102166.84;4169020;28;20079;-66
2022/05/24 05:17:40;;;;;;;2.15;1.63;;;;;;;28.01;39.64;102161.50;4168643;28;20042;-65
2022/05/24 05:19:41;;;;;;;1.40;1.30;;;;;;;28.03;39.64;102167.66;4168463;28;20370;-67
2022/05/24 05:21:43;;;;;;;1.27;1.17;;;;;;;27.98;39.79;102158.47;4151740;28;20077;-66
2022/05/24 05:23:44;;;;;;;2.60;1.15;;;;;;;28.04;39.67;102165.69;4168199;28;20095;-68
2022/05/24 05:25:49;;;;;;;1.85;1.45;;;;;;;28.04;39.74;102165.69;4171382;28;20037;-66
2022/05/24 05:27:51;;;;;;;2.30;1.42;;;;;;;28.04;39.68;102157.25;4172545;28;20473;-66
2022/05/24 05:32:21;;;;;;;2.03;1.20;;;;;;;28.05;39.74;102150.50;4173744;28;20052;-66
2022/05/24 05:34:24;;;;;;;1.95;1.17;;;;;;;28.06;39.47;102152.16;4175345;28;20480;-67
2022/05/24 05:36:28;;;;;;;1.83;1.40;;;;;;;28.06;39.57;102146.53;4188954;28;20379;-65
2022/05/24 05:38:31;;;;;;;1.70;1.38;;;;;;;28.06;39.81;102143.72;4188326;28;20036;-67
2022/05/24 05:40:42;;;;;;;2.35;1.65;;;;;;;28.05;39.47;102130.81;4188902;28;20041;-66
2022/05/24 05:42:44;;;;;;;1.23;1.13;;;;;;;28.06;39.62;102121.22;4172936;28;20037;-66
2022/05/24 05:44:49;;;;;;;1.40;1.30;;;;;;;28.06;39.75;102130.50;4164381;28;20045;-66
2022/05/24 05:47:00;;;;;;;1.30;1.17;;;;;;;28.06;39.95;102132.47;4172752;28;20053;-67
2022/05/24 05:49:01;;;;;;;1.27;1.17;;;;;;;28.05;39.64;102130.81;4135076;28;20076;-67
2022/05/24 05:51:04;;;;;;;2.05;1.42;;;;;;;28.06;39.74;102135.28;4173985;28;20037;-67
2022/05/24 05:53:06;;;;;;;1.55;1.40;;;;;;;28.06;39.57;102140.91;4182281;28;20021;-67
2022/05/24 05:55:08;;;;;;;1.38;1.25;;;;;;;28.04;39.93;102134.75;4168842;28;20127;-67
2022/05/24 05:57:11;;;;;;;1.67;1.30;;;;;;;28.03;39.92;102131.09;4150970;28;20096;-67
2022/05/24 05:59:12;;;;;;;2.97;1.30;;;;;;;28.06;39.89;102135.28;4180702;28;20055;-67
2022/05/24 06:01:19;;;;;;;1.58;1.48;;;;;;;28.01;39.68;102138.16;4171200;28;20045;-67
2022/05/24 06:03:20;;;;;;;1.42;1.30;;;;;;;28.05;39.85;102140.09;4166163;28;20037;-67
2022/05/24 06:05:22;;;;;;;2.38;1.30;;;;;;;27.86;39.95;102114.72;4168815;28;20045;-67
2022/05/24 06:07:23;;;;;;;2.00;1.30;;;;;;;27.97;39.99;102129.50;4177773;28;20033;-67
2022/05/24 06:09:25;;;;;;;1.38;1.27;;;;;;;28.03;39.74;102142.34;4161853;28;20042;-66
2022/05/24 06:11:26;;;;;;;1.60;1.20;;;;;;;28.03;40.03;102135.88;4179492;28;20377;-67
2022/05/24 06:13:28;;;;;;;1.33;1.20;;;;;;;28.01;40.00;102129.72;4186470;28;20041;-67
2022/05/24 06:15:31;;;;;;;1.30;1.20;;;;;;;28.01;39.79;102124.09;4158864;28;20030;-68
2022/05/24 06:17:33;;;;;;;1.35;1.20;;;;;;;28.03;39.84;102130.25;4169904;28;20021;-67
2022/05/24 06:19:34;;;;;;;1.60;1.50;;;;;;;27.96;39.92;102124.19;4155858;28;20037;-67
2022/05/24 06:21:35;;;;;;;1.40;1.30;;;;;;;28.02;39.94;102146.31;4168391;28;20045;-67
2022/05/24 06:23:37;;;;;;;1.30;1.10;;;;;;;28.00;40.04;102151.41;4166739;28;20485;-67
2022/05/24 06:25:40;;;;;;;0.95;0.95;;;;;;;28.01;39.82;102149.44;4168255;28;20103;-67
2022/05/24 06:27:42;;;;;;;1.83;1.30;;;;;;;27.94;40.02;102140.50;4184215;28;20041;-68
2022/05/24 06:29:43;;;;;;;2.17;1.27;;;;;;;28.01;40.01;102149.44;4174634;28;20490;-67
2022/05/24 06:31:44;;;;;;;2.13;1.20;;;;;;;28.01;39.87;102153.06;4161968;28;20104;-67
2022/05/24 06:33:46;;;;;;;1.48;1.17;;;;;;;27.99;40.00;102149.72;4170928;28;20087;-66
2022/05/24 06:35:47;;;;;;;1.23;1.10;;;;;;;27.99;40.11;102152.53;4181022;28;20087;-68
2022/05/24 06:37:49;;;;;;;1.58;1.13;;;;;;;28.01;40.15;102160.69;4185408;28;20037;-68
2022/05/24 06:39:51;;;;;;;1.15;1.05;;;;;;;28.01;39.90;102155.06;4174840;28;20029;-67
2022/05/24 06:41:52;;;;;;;2.30;1.20;;;;;;;28.00;40.09;102154.22;4185543;28;20045;-67
2022/05/24 06:43:53;;;;;;;1.25;1.13;;;;;;;28.00;40.02;102159.00;4180897;28;20029;-67
2022/05/24 06:45:55;;;;;;;2.33;1.10;;;;;;;28.02;39.96;102156.72;4158552;28;20116;-67
2022/05/24 06:47:57;;;;;;;1.45;1.35;;;;;;;28.01;40.07;102169.97;4153851;28;20038;-68
2022/05/24 06:49:58;;;;;;;1.55;1.38;;;;;;;27.98;39.89;102166.91;4182706;28;20033;-67
2022/05/24 06:52:00;;;;;;;1.80;1.50;;;;;;;27.98;40.05;102166.91;4185610;28;20048;-67
2022/05/24 06:54:01;;;;;;;1.55;1.45;;;;;;;27.97;40.14;102165.22;4161342;28;20041;-67
2022/05/24 06:56:03;;;;;;;1.25;1.15;;;;;;;27.99;40.21;102168.56;4170927;28;20108;-66
2022/05/24 06:58:05;;;;;;;1.40;1.30;;;;;;;27.98;40.23;102172.53;4180530;28;20037;-67
2022/05/24 07:02:27;;;;;;;2.22;1.10;;;;;;;27.99;40.27;102174.19;4172011;28;20068;-68
2022/05/24 07:04:28;;;;;;;2.40;1.10;;;;;;;28.00;39.93;102173.09;4171111;28;20559;-66
2022/05/24 07:06:30;;;;;;;1.25;1.05;;;;;;;27.99;40.11;102174.19;4170403;28;20034;-67
2022/05/24 07:08:31;;;;;;;1.08;0.98;;;;;;;28.00;40.34;102175.91;4173443;28;20029;-67
2022/05/24 07:10:37;;;;;;;1.20;1.13;;;;;;;27.98;39.93;102178.16;4174422;28;20038;-67
2022/05/24 07:12:39;;;;;;;1.38;1.00;;;;;;;27.98;40.24;102189.41;4172246;28;20476;-67
2022/05/24 07:14:40;;;;;;;1.65;1.27;;;;;;;27.96;40.07;102180.44;4154588;28;20107;-67
2022/05/24 07:16:42;;;;;;;1.85;1.40;;;;;;;27.99;40.37;102182.63;4148352;28;20042;-67
2022/05/24 07:18:43;;;;;;;1.73;0.80;;;;;;;27.97;40.17;102179.28;4171888;28;20042;-66
2022/05/24 07:20:44;;;;;;;1.10;1.00;;;;;;;27.96;40.06;102174.81;4139901;28;20038;-66
2022/05/24 07:22:48;;;;;;;1.95;1.00;;;;;;;27.92;40.38;102180.19;4173431;28;20046;-66
2022/05/24 07:24:49;;;;;;;1.63;1.05;;;;;;;27.91;40.34;102172.91;4173936;28;20042;-67
2022/05/24 07:26:51;;;;;;;1.38;1.02;;;;;;;27.94;40.09;102174.25;4172810;28;20021;-67
2022/05/24 07:28:53;;;;;;;1.50;0.95;;;;;;;27.99;39.83;102179.81;4154574;28;20049;-66
2022/05/24 07:30:54;;;;;;;2.42;1.02;;;;;;;27.97;40.12;102179.28;4171792;28;20060;-66
2022/05/24 07:32:56;;;;;;;1.05;0.95;;;;;;;27.91;40.32;102160.81;4171069;28;20103;-68
2022/05/24 07:34:59;;;;;;;0.82;0.82;;;;;;;27.95;40.11;102173.97;4173168;28;20416;-67
2022/05/24 07:37:02;;;;;;;0.70;0.70;;;;;;;27.96;40.17;102186.06;4155550;28;20081;-67
2022/05/24 07:39:03;;;;;;;1.25;0.85;;;;;;;27.94;40.11;102177.06;4173919;28;20038;-66
2022/05/24 07:45:48;;;;;;;1.38;0.93;;;;;;;27.98;39.94;102195.03;4188162;28;20106;-67
2022/05/24 07:47:50;;;;;;;1.20;1.00;;;;;;;27.95;40.23;102192.81;4178983;28;20159;-67
2022/05/24 07:49:51;;;;;;;1.60;0.95;;;;;;;27.95;40.09;102190.00;4156208;28;20045;-67
2022/05/24 07:51:52;;;;;;;1.35;0.90;;;;;;;27.97;40.07;102193.38;4174010;28;20021;-67
2022/05/24 07:53:54;;;;;;;1.02;0.93;;;;;;;27.97;40.24;102196.19;4180384;28;20036;-67
2022/05/24 07:55:57;;;;;;;1.10;1.00;;;;;;;27.92;40.13;102187.81;4177013;28;20025;-68
2022/05/24 07:57:59;;;;;;;1.10;0.98;;;;;;;27.93;40.37;102186.66;4173661;28;20033;-68
2022/05/24 08:00:01;;;;;;;1.15;1.08;;;;;;;27.91;39.98;102186.13;4173142;28;20041;-68
2022/05/24 08:02:02;;;;;;;1.23;0.93;;;;;;;27.94;40.18;102200.41;4173157;28;20049;-68
2022/05/24 08:04:06;;;;;;;1.42;0.93;;;;;;;27.95;40.37;102195.63;4174084;28;20187;-69
2022/05/24 08:06:10;;;;;;;2.10;1.00;;;;;;;27.90;40.27;102188.06;4156111;28;20034;-69
2022/05/24 08:08:11;;;;;;;1.00;0.90;;;;;;;27.92;40.26;102190.63;4166964;28;20041;-67
2022/05/24 08:10:13;;;;;;;1.00;0.90;;;;;;;27.88;40.11;102183.91;4171679;28;20037;-67
2022/05/24 08:12:14;;;;;;;1.55;1.00;;;;;;;27.91;40.20;102189.78;4190465;28;20021;-67
2022/05/24 08:14:16;;;;;;;1.40;1.10;;;;;;;27.93;40.12;102203.53;4172861;28;20045;-67
2022/05/24 08:16:17;;;;;;;1.50;1.13;;;;;;;27.94;40.17;102193.94;4170482;28;20046;-68
2022/05/24 08:18:20;;;;;;;1.17;1.00;;;;;;;27.93;40.19;102198.75;4172436;28;20072;-68
2022/05/24 08:20:29;;;;;;;1.17;0.98;;;;;;;27.86;40.43;102196.31;4172748;28;20037;-69
2022/05/24 08:22:32;;;;;;;1.33;1.02;;;;;;;27.91;40.37;102205.81;4173879;28;20056;-67
2022/05/24 08:24:34;;;;;;;1.25;1.02;;;;;;;27.89;40.26;102202.44;4144770;28;20045;-68
2022/05/24 08:26:39;;;;;;;1.17;1.00;;;;;;;27.92;40.27;102202.69;4155618;28;20092;-67
2022/05/24 08:28:43;;;;;;;1.30;1.20;;;;;;;27.86;40.32;102206.72;4173425;28;20099;-68
2022/05/24 08:30:46;;;;;;;1.40;0.85;;;;;;;27.86;40.09;102206.72;4174224;28;20083;-67
2022/05/24 08:32:48;;;;;;;1.73;1.00;;;;;;;27.88;40.13;102207.25;4176012;28;20064;-67
2022/05/24 08:34:50;;;;;;;1.25;0.90;;;;;;;27.81;40.36;102196.38;4186820;28;20052;-67
2022/05/24 08:36:51;;;;;;;1.20;1.10;;;;;;;27.86;40.13;102201.09;4156590;28;20069;-67
2022/05/24 08:38:52;;;;;;;1.13;1.02;;;;;;;27.89;40.39;102205.28;4177720;28;20083;-68
2022/05/24 08:40:59;;;;;;;2.42;1.00;;;;;;;27.89;40.41;102205.28;4190124;28;20545;-68
2022/05/24 08:43:13;;;;;;;1.25;1.08;;;;;;;27.88;40.26;102201.63;4177819;28;20029;-67
2022/05/24 08:50:03;;;;;;;1.30;1.02;;;;;;;27.91;40.37;102194.56;4184422;28;20074;-67
2022/05/24 08:52:09;;;;;;;0.95;0.90;;;;;;;27.89;40.50;102185.56;4161348;28;20100;-67
2022/05/24 08:54:20;;;;;;;2.05;1.00;;;;;;;27.86;40.39;102199.13;4189421;28;20040;-67
2022/05/24 08:56:28;;;;;;;1.13;0.90;;;;;;;27.84;40.44;102192.94;4171233;28;20080;-67
2022/05/24 08:58:47;;;;;;;1.08;0.98;;;;;;;27.86;40.15;102187.03;4151452;28;20038;-68
2022/05/24 09:00:51;;;;;;;1.40;1.20;;;;;;;27.83;40.38;102185.63;4166384;28;20087;-68
2022/05/24 09:02:53;;;;;;;0.93;0.82;;;;;;;27.84;40.48;102186.47;4174903;28;20053;-68
2022/05/24 09:04:54;;;;;;;1.25;0.90;;;;;;;27.86;40.57;102192.66;4167637;28;20045;-68
2022/05/24 09:07:16;;;;;;;1.10;1.00;;;;;;;27.86;40.61;102184.22;4156106;28;20045;-67
2022/05/24 09:09:30;;;;;;;1.02;0.93;;;;;;;27.85;40.36;102185.31;4187982;28;20033;-67
2022/05/24 09:11:54;;;;;;;1.77;1.10;;;;;;;27.83;40.42;102188.44;4186618;28;20041;-67
2022/05/24 09:14:12;;;;;;;1.08;0.98;;;;;;;27.83;40.44;102185.63;4185625;28;20063;-67
2022/05/24 09:16:17;;;;;;;1.30;1.20;;;;;;;27.84;40.63;102190.13;4186842;28;20087;-67
2022/05/24 09:18:37;;;;;;;;;;;;;;;27.82;40.76;102175.53;4183701;28;20103;-66
2022/05/24 09:20:44;;;;;;;0.80;0.80;;;;;;;27.86;40.67;102179.44;4187396;28;19940;-66
2022/05/24 09:22:45;;;;;;;1.08;0.98;;;;;;;27.86;40.48;102165.34;4183410;28;20051;-66
2022/05/24 09:24:53;;;;;;;1.30;1.20;;;;;;;27.83;40.64;102168.75;4159456;28;20045;-67
2022/05/24 09:27:03;;;;;;;1.33;1.20;;;;;;;27.83;40.36;102174.38;4167757;28;20072;-67
2022/05/24 09:29:14;;;;;;;1.10;1.00;;;;;;;27.80;40.53;102166.53;4177726;28;20111;-67
2022/05/24 09:31:21;;;;;;;1.27;1.10;;;;;;;27.82;40.59;102169.91;4168502;28;20037;-68
2022/05/24 09:33:26;;;;;;;0.88;0.85;;;;;;;27.76;40.41;102165.44;4182698;28;20075;-67
2022/05/24 09:35:27;;;;;;;1.13;1.02;;;;;;;27.79;40.59;102170.50;4167644;28;20091;-67
2022/05/24 09:37:29;;;;;;;1.08;0.80;;;;;;;27.79;40.38;102164.88;4166824;28;20033;-66
2022/05/24 09:39:35;;;;;;;1.08;0.90;;;;;;;27.81;40.39;102168.22;4172101;28;20103;-67
2022/05/24 09:41:37;;;;;;;1.80;1.05;;;;;;;27.81;40.43;102165.41;4174231;28;20067;-68
2022/05/24 09:43:40;;;;;;;1.00;0.80;;;;;;;27.79;40.70;102166.84;4184254;28;20037;-68
2022/05/24 09:45:47;;;;;;;1.48;0.95;;;;;;;27.79;40.33;102170.50;4185371;28;20443;-69
2022/05/24 09:47:56;;;;;;;1.30;0.95;;;;;;;27.81;40.74;102173.88;4185137;28;20099;-67
2022/05/24 09:50:20;;;;;;;2.25;0.80;;;;;;;27.81;40.42;102173.00;4173927;28;20068;-67
2022/05/24 09:52:22;;;;;;;1.35;1.05;;;;;;;27.80;40.65;102172.16;4169953;28;20045;-67
2022/05/24 09:54:28;;;;;;;0.95;0.80;;;;;;;27.80;40.37;102179.75;4146869;28;20072;-68
2022/05/24 09:56:33;;;;;;;1.52;0.80;;;;;;;27.79;40.63;102170.50;4173286;28;20041;-67
2022/05/24 09:58:38;;;;;;;0.60;0.60;;;;;;;27.80;40.47;102174.97;4163901;28;20045;-68
2022/05/24 10:00:57;;;;;;;1.17;1.00;;;;;;;27.79;40.64;102176.13;4185052;28;20098;-66
2022/05/24 10:03:08;;;;;;;1.02;0.88;;;;;;;27.82;40.57;102185.94;4153230;28;20103;-66
2022/05/24 10:05:25;;;;;;;0.98;0.90;;;;;;;27.77;40.69;102184.03;4155213;28;20045;-67
2022/05/24 10:07:35;;;;;;;1.55;1.17;;;;;;;27.78;40.90;102185.69;4182884;28;20047;-67
2022/05/24 10:09:47;;;;;;;0.70;0.70;;;;;;;27.79;40.58;102186.53;4169312;28;20095;-67
2022/05/24 10:11:55;;;;;;;1.23;1.10;;;;;;;27.80;40.51;102193.81;4168286;28;20103;-67